sensor_id;sensor_type;location;lat;lon;timestamp;temperature;humidity
57108;DHT22;42987;52.916;6.542;2023-02-15T00:01:18;1.70;99.90
57108;DHT22;42987;52.916;6.542;2023-02-15T00:03:44;1.70;99.90
57108;DHT22;42987;52.916;6.542;2023-02-15T00:06:10;1.70;99.90
57108;DHT22;42987;52.916;6.542;2023-02-15T00:08:36;1.70;99.90
57108;DHT22;42987;52.916;6.542;2023-02-15T00:13:31;1.60;99.90
57108;DHT22;42987;52.916;6.542;2023-02-15T00:16:08;1.60;99.90
57108;DHT22;42987;52.916;6.542;2023-02-15T00:18:34;1.60;99.90
57108;DHT22;42987;52.916;6.542;2023-02-15T00:21:07;1.60;99.90
57108;DHT22;42987;52.916;6.542;2023-02-15T00:23:34;1.60;99.90
57108;DHT22;42987;52.916;6.542;2023-02-15T00:26:11;1.60;99.90
57108;DHT22;42987;52.916;6.542;2023-02-15T00:28:37;1.50;99.90
57108;DHT22;42987;52.916;6.542;2023-02-15T00:31:11;1.50;99.90
57108;DHT22;42987;52.916;6.542;2023-02-15T00:33:38;1.50;99.90
57108;DHT22;42987;52.916;6.542;2023-02-15T00:36:05;1.40;99.90
57108;DHT22;42987;52.916;6.542;2023-02-15T00:38:32;1.40;99.90
57108;DHT22;42987;52.916;6.542;2023-02-15T00:41:00;1.40;99.90
57108;DHT22;42987;52.916;6.542;2023-02-15T00:43:27;1.40;99.90
57108;DHT22;42987;52.916;6.542;2023-02-15T00:45:53;1.30;99.90
57108;DHT22;42987;52.916;6.542;2023-02-15T00:48:19;1.30;99.90
57108;DHT22;42987;52.916;6.542;2023-02-15T00:50:47;1.30;99.90
57108;DHT22;42987;52.916;6.542;2023-02-15T00:53:14;1.30;99.90
57108;DHT22;42987;52.916;6.542;2023-02-15T00:55:40;1.20;99.90
57108;DHT22;42987;52.916;6.542;2023-02-15T00:58:07;1.30;99.90
57108;DHT22;42987;52.916;6.542;2023-02-15T01:00:33;1.30;99.90
57108;DHT22;42987;52.916;6.542;2023-02-15T01:02:59;1.30;99.90
57108;DHT22;42987;52.916;6.542;2023-02-15T01:05:25;1.20;99.90
57108;DHT22;42987;52.916;6.542;2023-02-15T01:07:50;1.20;99.90
57108;DHT22;42987;52.916;6.542;2023-02-15T01:10:16;1.20;99.90
57108;DHT22;42987;52.916;6.542;2023-02-15T01:12:42;1.20;99.90
57108;DHT22;42987;52.916;6.542;2023-02-15T01:15:08;1.20;99.90
57108;DHT22;42987;52.916;6.542;2023-02-15T01:17:35;1.20;99.90
57108;DHT22;42987;52.916;6.542;2023-02-15T01:20:01;1.10;99.90
57108;DHT22;42987;52.916;6.542;2023-02-15T01:22:26;1.00;99.90
57108;DHT22;42987;52.916;6.542;2023-02-15T01:24:52;1.00;99.90
57108;DHT22;42987;52.916;6.542;2023-02-15T01:27:18;1.00;99.90
57108;DHT22;42987;52.916;6.542;2023-02-15T01:29:44;1.00;99.90
57108;DHT22;42987;52.916;6.542;2023-02-15T01:32:10;1.10;99.90
57108;DHT22;42987;52.916;6.542;2023-02-15T01:34:35;1.00;99.90
57108;DHT22;42987;52.916;6.542;2023-02-15T01:37:01;1.00;99.90
57108;DHT22;42987;52.916;6.542;2023-02-15T01:39:27;1.00;99.90
57108;DHT22;42987;52.916;6.542;2023-02-15T01:41:53;1.00;99.90
57108;DHT22;42987;52.916;6.542;2023-02-15T01:47:44;1.00;99.90
57108;DHT22;42987;52.916;6.542;2023-02-15T01:50:19;1.00;99.90
57108;DHT22;42987;52.916;6.542;2023-02-15T01:53:01;1.00;99.90
57108;DHT22;42987;52.916;6.542;2023-02-15T01:55:36;1.00;99.90
57108;DHT22;42987;52.916;6.542;2023-02-15T01:58:03;0.90;99.90
57108;DHT22;42987;52.916;6.542;2023-02-15T02:00:30;0.90;99.90
57108;DHT22;42987;52.916;6.542;2023-02-15T02:02:56;0.90;99.90
57108;DHT22;42987;52.916;6.542;2023-02-15T02:05:23;0.90;99.90
57108;DHT22;42987;52.916;6.542;2023-02-15T02:07:51;0.80;99.90
57108;DHT22;42987;52.916;6.542;2023-02-15T02:10:20;0.80;99.90
57108;DHT22;42987;52.916;6.542;2023-02-15T02:12:50;0.90;99.90
57108;DHT22;42987;52.916;6.542;2023-02-15T02:15:17;0.80;99.90
57108;DHT22;42987;52.916;6.542;2023-02-15T02:20:53;0.80;99.90
57108;DHT22;42987;52.916;6.542;2023-02-15T02:23:51;0.80;99.90
57108;DHT22;42987;52.916;6.542;2023-02-15T02:29:42;0.70;99.90
57108;DHT22;42987;52.916;6.542;2023-02-15T02:38:27;0.80;99.90
57108;DHT22;42987;52.916;6.542;2023-02-15T02:44:24;0.80;99.90
57108;DHT22;42987;52.916;6.542;2023-02-15T02:46:59;0.80;99.90
57108;DHT22;42987;52.916;6.542;2023-02-15T02:49:33;0.70;99.90
57108;DHT22;42987;52.916;6.542;2023-02-15T02:52:05;0.70;99.90
57108;DHT22;42987;52.916;6.542;2023-02-15T02:54:33;0.70;99.90
57108;DHT22;42987;52.916;6.542;2023-02-15T02:57:06;0.60;99.90
57108;DHT22;42987;52.916;6.542;2023-02-15T02:59:38;0.70;99.90
57108;DHT22;42987;52.916;6.542;2023-02-15T03:04:41;0.60;99.90
57108;DHT22;42987;52.916;6.542;2023-02-15T03:07:15;0.60;99.90
57108;DHT22;42987;52.916;6.542;2023-02-15T03:09:45;0.60;99.90
57108;DHT22;42987;52.916;6.542;2023-02-15T03:12:20;0.60;99.90
57108;DHT22;42987;52.916;6.542;2023-02-15T03:14:49;0.50;99.90
57108;DHT22;42987;52.916;6.542;2023-02-15T03:17:17;0.50;99.90
57108;DHT22;42987;52.916;6.542;2023-02-15T03:19:45;0.50;99.90
57108;DHT22;42987;52.916;6.542;2023-02-15T03:22:22;0.50;99.90
57108;DHT22;42987;52.916;6.542;2023-02-15T03:25:15;0.50;99.90
57108;DHT22;42987;52.916;6.542;2023-02-15T03:28:05;0.50;99.90
57108;DHT22;42987;52.916;6.542;2023-02-15T03:30:34;0.40;99.90
57108;DHT22;42987;52.916;6.542;2023-02-15T03:33:02;0.40;99.90
57108;DHT22;42987;52.916;6.542;2023-02-15T03:38:17;0.30;99.90
57108;DHT22;42987;52.916;6.542;2023-02-15T03:40:47;0.20;99.90
57108;DHT22;42987;52.916;6.542;2023-02-15T03:43:57;0.30;99.90
57108;DHT22;42987;52.916;6.542;2023-02-15T03:46:50;0.30;99.90
57108;DHT22;42987;52.916;6.542;2023-02-15T03:49:22;0.30;99.90
57108;DHT22;42987;52.916;6.542;2023-02-15T03:51:55;0.30;99.90
57108;DHT22;42987;52.916;6.542;2023-02-15T03:54:27;0.40;99.90
57108;DHT22;42987;52.916;6.542;2023-02-15T03:57:35;0.30;99.90
57108;DHT22;42987;52.916;6.542;2023-02-15T04:00:22;0.30;99.90
57108;DHT22;42987;52.916;6.542;2023-02-15T04:03:23;0.30;99.90
57108;DHT22;42987;52.916;6.542;2023-02-15T04:05:53;0.30;99.90
57108;DHT22;42987;52.916;6.542;2023-02-15T04:08:19;0.30;99.90
57108;DHT22;42987;52.916;6.542;2023-02-15T04:10:44;0.30;99.90
57108;DHT22;42987;52.916;6.542;2023-02-15T04:13:30;0.40;99.90
57108;DHT22;42987;52.916;6.542;2023-02-15T04:15:56;0.40;99.90
57108;DHT22;42987;52.916;6.542;2023-02-15T04:18:36;0.40;99.90
57108;DHT22;42987;52.916;6.542;2023-02-15T04:21:22;0.30;99.90
57108;DHT22;42987;52.916;6.542;2023-02-15T04:24:07;0.40;99.90
57108;DHT22;42987;52.916;6.542;2023-02-15T04:26:51;0.40;99.90
57108;DHT22;42987;52.916;6.542;2023-02-15T04:29:22;0.40;99.90
57108;DHT22;42987;52.916;6.542;2023-02-15T04:31:49;0.50;99.90
57108;DHT22;42987;52.916;6.542;2023-02-15T04:34:15;0.50;99.90
57108;DHT22;42987;52.916;6.542;2023-02-15T04:36:41;0.50;99.90
57108;DHT22;42987;52.916;6.542;2023-02-15T04:39:07;0.50;99.90
57108;DHT22;42987;52.916;6.542;2023-02-15T04:41:34;0.40;99.90
57108;DHT22;42987;52.916;6.542;2023-02-15T04:44:00;0.60;99.90
57108;DHT22;42987;52.916;6.542;2023-02-15T04:46:27;0.60;99.90
57108;DHT22;42987;52.916;6.542;2023-02-15T04:48:54;0.60;99.90
57108;DHT22;42987;52.916;6.542;2023-02-15T04:51:20;0.60;99.90
57108;DHT22;42987;52.916;6.542;2023-02-15T04:53:46;0.70;99.90
57108;DHT22;42987;52.916;6.542;2023-02-15T04:56:11;0.70;99.90
57108;DHT22;42987;52.916;6.542;2023-02-15T04:58:37;0.70;99.90
57108;DHT22;42987;52.916;6.542;2023-02-15T05:01:07;0.80;99.90
57108;DHT22;42987;52.916;6.542;2023-02-15T05:03:33;0.80;99.90
57108;DHT22;42987;52.916;6.542;2023-02-15T05:05:59;0.80;99.90
57108;DHT22;42987;52.916;6.542;2023-02-15T05:08:25;0.80;99.90
57108;DHT22;42987;52.916;6.542;2023-02-15T05:10:51;0.90;99.90
57108;DHT22;42987;52.916;6.542;2023-02-15T05:13:16;0.70;99.90
57108;DHT22;42987;52.916;6.542;2023-02-15T05:15:50;0.70;99.90
57108;DHT22;42987;52.916;6.542;2023-02-15T05:18:17;0.80;99.90
57108;DHT22;42987;52.916;6.542;2023-02-15T05:20:43;0.80;99.90
57108;DHT22;42987;52.916;6.542;2023-02-15T05:23:09;0.70;99.90
57108;DHT22;42987;52.916;6.542;2023-02-15T05:25:35;0.60;99.90
57108;DHT22;42987;52.916;6.542;2023-02-15T05:28:27;0.70;99.90
57108;DHT22;42987;52.916;6.542;2023-02-15T05:33:25;0.60;99.90
57108;DHT22;42987;52.916;6.542;2023-02-15T05:35:51;0.60;99.90
57108;DHT22;42987;52.916;6.542;2023-02-15T05:38:16;0.60;99.90
57108;DHT22;42987;52.916;6.542;2023-02-15T05:40:42;0.60;99.90
57108;DHT22;42987;52.916;6.542;2023-02-15T05:43:08;0.60;99.90
57108;DHT22;42987;52.916;6.542;2023-02-15T05:45:34;0.60;99.90
57108;DHT22;42987;52.916;6.542;2023-02-15T05:47:59;0.60;99.90
57108;DHT22;42987;52.916;6.542;2023-02-15T05:50:25;0.60;99.90
57108;DHT22;42987;52.916;6.542;2023-02-15T05:52:52;0.50;99.90
57108;DHT22;42987;52.916;6.542;2023-02-15T05:55:18;0.60;99.90
57108;DHT22;42987;52.916;6.542;2023-02-15T05:57:43;0.60;99.90
57108;DHT22;42987;52.916;6.542;2023-02-15T06:00:13;0.60;99.90
57108;DHT22;42987;52.916;6.542;2023-02-15T06:02:39;0.60;99.90
57108;DHT22;42987;52.916;6.542;2023-02-15T06:05:06;0.70;99.90
57108;DHT22;42987;52.916;6.542;2023-02-15T06:07:32;0.80;99.90
57108;DHT22;42987;52.916;6.542;2023-02-15T06:09:58;0.90;99.90
57108;DHT22;42987;52.916;6.542;2023-02-15T06:12:23;1.00;99.90
57108;DHT22;42987;52.916;6.542;2023-02-15T06:14:49;1.00;99.90
57108;DHT22;42987;52.916;6.542;2023-02-15T06:17:15;1.00;99.90
57108;DHT22;42987;52.916;6.542;2023-02-15T06:19:42;1.00;99.90
57108;DHT22;42987;52.916;6.542;2023-02-15T06:22:08;1.00;99.90
57108;DHT22;42987;52.916;6.542;2023-02-15T06:24:34;1.00;99.90
57108;DHT22;42987;52.916;6.542;2023-02-15T06:26:59;1.00;99.90
57108;DHT22;42987;52.916;6.542;2023-02-15T06:29:25;1.10;99.90
57108;DHT22;42987;52.916;6.542;2023-02-15T06:31:51;1.00;99.90
57108;DHT22;42987;52.916;6.542;2023-02-15T06:34:17;1.10;99.90
57108;DHT22;42987;52.916;6.542;2023-02-15T06:36:42;1.10;99.90
57108;DHT22;42987;52.916;6.542;2023-02-15T06:39:08;1.10;99.90
57108;DHT22;42987;52.916;6.542;2023-02-15T06:41:34;1.10;99.90
57108;DHT22;42987;52.916;6.542;2023-02-15T06:44:00;1.10;99.90
57108;DHT22;42987;52.916;6.542;2023-02-15T06:46:26;1.10;99.90
57108;DHT22;42987;52.916;6.542;2023-02-15T06:48:52;1.10;99.90
57108;DHT22;42987;52.916;6.542;2023-02-15T06:51:17;1.10;99.90
57108;DHT22;42987;52.916;6.542;2023-02-15T06:53:43;1.10;99.90
57108;DHT22;42987;52.916;6.542;2023-02-15T06:56:10;1.00;99.90
57108;DHT22;42987;52.916;6.542;2023-02-15T06:58:37;1.10;99.90
57108;DHT22;42987;52.916;6.542;2023-02-15T07:01:03;1.10;99.90
57108;DHT22;42987;52.916;6.542;2023-02-15T07:03:29;1.10;99.90
57108;DHT22;42987;52.916;6.542;2023-02-15T07:05:56;1.10;99.90
57108;DHT22;42987;52.916;6.542;2023-02-15T07:08:23;1.20;99.90
57108;DHT22;42987;52.916;6.542;2023-02-15T07:10:51;1.20;99.90
57108;DHT22;42987;52.916;6.542;2023-02-15T07:13:17;1.20;99.90
57108;DHT22;42987;52.916;6.542;2023-02-15T07:15:44;1.20;99.90
57108;DHT22;42987;52.916;6.542;2023-02-15T07:18:10;1.10;99.90
57108;DHT22;42987;52.916;6.542;2023-02-15T07:20:37;1.30;99.90
57108;DHT22;42987;52.916;6.542;2023-02-15T07:23:04;1.30;99.90
57108;DHT22;42987;52.916;6.542;2023-02-15T07:25:30;1.40;99.90
57108;DHT22;42987;52.916;6.542;2023-02-15T07:28:00;1.40;99.90
57108;DHT22;42987;52.916;6.542;2023-02-15T07:30:27;1.50;99.90
57108;DHT22;42987;52.916;6.542;2023-02-15T07:32:57;1.50;99.90
57108;DHT22;42987;52.916;6.542;2023-02-15T07:35:56;1.50;99.90
57108;DHT22;42987;52.916;6.542;2023-02-15T07:38:24;1.60;99.90
57108;DHT22;42987;52.916;6.542;2023-02-15T07:40:50;1.60;99.90
57108;DHT22;42987;52.916;6.542;2023-02-15T07:43:16;1.60;99.90
57108;DHT22;42987;52.916;6.542;2023-02-15T07:45:42;1.70;99.90
57108;DHT22;42987;52.916;6.542;2023-02-15T07:48:08;1.70;99.90
57108;DHT22;42987;52.916;6.542;2023-02-15T07:50:34;1.70;99.90
57108;DHT22;42987;52.916;6.542;2023-02-15T07:53:03;1.80;99.90
57108;DHT22;42987;52.916;6.542;2023-02-15T07:55:29;1.80;99.90
57108;DHT22;42987;52.916;6.542;2023-02-15T07:57:55;1.80;99.90
57108;DHT22;42987;52.916;6.542;2023-02-15T08:00:21;1.90;99.90
57108;DHT22;42987;52.916;6.542;2023-02-15T08:02:56;1.80;99.90
57108;DHT22;42987;52.916;6.542;2023-02-15T08:05:42;1.90;99.90
57108;DHT22;42987;52.916;6.542;2023-02-15T08:08:09;1.90;99.90
57108;DHT22;42987;52.916;6.542;2023-02-15T08:11:28;1.90;99.90
57108;DHT22;42987;52.916;6.542;2023-02-15T08:14:16;2.00;99.90
57108;DHT22;42987;52.916;6.542;2023-02-15T08:16:45;2.10;99.90
57108;DHT22;42987;52.916;6.542;2023-02-15T08:19:27;2.00;99.90
57108;DHT22;42987;52.916;6.542;2023-02-15T08:22:05;2.10;99.90
57108;DHT22;42987;52.916;6.542;2023-02-15T08:24:34;2.10;99.90
57108;DHT22;42987;52.916;6.542;2023-02-15T08:27:00;2.10;99.90
57108;DHT22;42987;52.916;6.542;2023-02-15T08:29:29;2.20;99.90
57108;DHT22;42987;52.916;6.542;2023-02-15T08:32:09;2.20;99.90
57108;DHT22;42987;52.916;6.542;2023-02-15T08:34:38;2.30;99.90
57108;DHT22;42987;52.916;6.542;2023-02-15T08:37:04;2.30;99.90
57108;DHT22;42987;52.916;6.542;2023-02-15T08:39:31;2.40;99.90
57108;DHT22;42987;52.916;6.542;2023-02-15T08:42:00;2.50;99.90
57108;DHT22;42987;52.916;6.542;2023-02-15T08:44:26;2.50;99.90
57108;DHT22;42987;52.916;6.542;2023-02-15T08:46:52;2.60;99.90
57108;DHT22;42987;52.916;6.542;2023-02-15T08:49:20;2.70;99.90
57108;DHT22;42987;52.916;6.542;2023-02-15T08:51:46;2.70;99.90
57108;DHT22;42987;52.916;6.542;2023-02-15T08:54:15;2.80;99.90
57108;DHT22;42987;52.916;6.542;2023-02-15T08:56:42;2.80;99.90
57108;DHT22;42987;52.916;6.542;2023-02-15T08:59:14;2.90;99.90
57108;DHT22;42987;52.916;6.542;2023-02-15T09:01:40;3.00;99.90
57108;DHT22;42987;52.916;6.542;2023-02-15T09:04:07;3.10;99.90
57108;DHT22;42987;52.916;6.542;2023-02-15T09:06:45;3.20;99.90
57108;DHT22;42987;52.916;6.542;2023-02-15T09:09:11;3.20;99.90
57108;DHT22;42987;52.916;6.542;2023-02-15T09:11:39;3.30;99.90
57108;DHT22;42987;52.916;6.542;2023-02-15T09:14:11;3.40;99.90
57108;DHT22;42987;52.916;6.542;2023-02-15T09:16:39;3.40;99.90
57108;DHT22;42987;52.916;6.542;2023-02-15T09:19:06;3.50;99.90
57108;DHT22;42987;52.916;6.542;2023-02-15T09:21:35;3.50;99.90
57108;DHT22;42987;52.916;6.542;2023-02-15T09:24:04;3.60;99.90
57108;DHT22;42987;52.916;6.542;2023-02-15T09:26:35;3.70;99.90
57108;DHT22;42987;52.916;6.542;2023-02-15T09:29:02;3.80;99.90
57108;DHT22;42987;52.916;6.542;2023-02-15T09:31:36;3.90;99.90
57108;DHT22;42987;52.916;6.542;2023-02-15T09:34:02;4.00;99.90
57108;DHT22;42987;52.916;6.542;2023-02-15T09:36:36;4.10;99.90
57108;DHT22;42987;52.916;6.542;2023-02-15T09:39:25;4.20;99.90
57108;DHT22;42987;52.916;6.542;2023-02-15T09:55:38;4.80;99.90
57108;DHT22;42987;52.916;6.542;2023-02-15T10:03:58;5.10;99.90
57108;DHT22;42987;52.916;6.542;2023-02-15T10:06:40;5.30;99.90
57108;DHT22;42987;52.916;6.542;2023-02-15T10:33:50;6.10;99.90
57108;DHT22;42987;52.916;6.542;2023-02-15T10:39:43;6.30;99.90
57108;DHT22;42987;52.916;6.542;2023-02-15T10:50:30;6.60;99.90
57108;DHT22;42987;52.916;6.542;2023-02-15T11:02:18;7.00;99.90
57108;DHT22;42987;52.916;6.542;2023-02-15T11:05:18;7.20;99.90
57108;DHT22;42987;52.916;6.542;2023-02-15T11:07:47;7.30;99.90
57108;DHT22;42987;52.916;6.542;2023-02-15T11:10:35;7.40;99.90
57108;DHT22;42987;52.916;6.542;2023-02-15T11:13:09;7.50;99.90
57108;DHT22;42987;52.916;6.542;2023-02-15T11:16:06;7.60;99.90
57108;DHT22;42987;52.916;6.542;2023-02-15T11:18:41;7.70;99.90
57108;DHT22;42987;52.916;6.542;2023-02-15T11:21:30;7.80;99.90
57108;DHT22;42987;52.916;6.542;2023-02-15T11:24:13;7.90;99.90
57108;DHT22;42987;52.916;6.542;2023-02-15T11:26:47;7.90;99.90
57108;DHT22;42987;52.916;6.542;2023-02-15T11:29:31;8.00;99.90
57108;DHT22;42987;52.916;6.542;2023-02-15T11:32:11;8.10;99.90
57108;DHT22;42987;52.916;6.542;2023-02-15T11:37:35;8.30;99.90
57108;DHT22;42987;52.916;6.542;2023-02-15T11:40:03;8.30;99.90
57108;DHT22;42987;52.916;6.542;2023-02-15T11:42:40;8.40;99.90
57108;DHT22;42987;52.916;6.542;2023-02-15T11:47:54;8.60;99.90
57108;DHT22;42987;52.916;6.542;2023-02-15T11:50:29;8.60;99.90
57108;DHT22;42987;52.916;6.542;2023-02-15T11:53:00;8.70;99.90
57108;DHT22;42987;52.916;6.542;2023-02-15T11:55:27;8.80;99.90
57108;DHT22;42987;52.916;6.542;2023-02-15T11:58:04;9.00;99.90
57108;DHT22;42987;52.916;6.542;2023-02-15T12:00:39;9.00;99.90
57108;DHT22;42987;52.916;6.542;2023-02-15T12:06:30;9.30;99.90
57108;DHT22;42987;52.916;6.542;2023-02-15T12:12:19;9.40;99.90
57108;DHT22;42987;52.916;6.542;2023-02-15T12:14:51;9.50;99.90
57108;DHT22;42987;52.916;6.542;2023-02-15T12:17:17;9.40;99.90
57108;DHT22;42987;52.916;6.542;2023-02-15T12:19:44;9.40;99.90
57108;DHT22;42987;52.916;6.542;2023-02-15T12:22:37;9.50;99.90
57108;DHT22;42987;52.916;6.542;2023-02-15T12:25:26;9.50;99.90
57108;DHT22;42987;52.916;6.542;2023-02-15T12:27:58;9.60;99.90
57108;DHT22;42987;52.916;6.542;2023-02-15T12:30:35;9.70;99.90
57108;DHT22;42987;52.916;6.542;2023-02-15T12:33:23;9.80;99.90
57108;DHT22;42987;52.916;6.542;2023-02-15T12:36:18;9.80;99.90
57108;DHT22;42987;52.916;6.542;2023-02-15T12:41:30;10.00;99.90
57108;DHT22;42987;52.916;6.542;2023-02-15T12:44:22;10.00;99.90
57108;DHT22;42987;52.916;6.542;2023-02-15T12:49:37;10.20;99.90
57108;DHT22;42987;52.916;6.542;2023-02-15T12:52:23;10.20;99.90
57108;DHT22;42987;52.916;6.542;2023-02-15T12:54:53;10.20;99.90
57108;DHT22;42987;52.916;6.542;2023-02-15T12:57:30;10.30;99.90
57108;DHT22;42987;52.916;6.542;2023-02-15T13:00:34;10.30;99.90
57108;DHT22;42987;52.916;6.542;2023-02-15T13:02:56;10.30;99.90
57108;DHT22;42987;52.916;6.542;2023-02-15T13:08:18;10.40;99.90
57108;DHT22;42987;52.916;6.542;2023-02-15T13:11:00;10.50;99.90
57108;DHT22;42987;52.916;6.542;2023-02-15T13:13:30;10.50;99.90
57108;DHT22;42987;52.916;6.542;2023-02-15T13:16:07;10.50;99.90
57108;DHT22;42987;52.916;6.542;2023-02-15T13:21:25;10.50;99.90
57108;DHT22;42987;52.916;6.542;2023-02-15T13:23:58;10.50;99.90
57108;DHT22;42987;52.916;6.542;2023-02-15T13:26:29;10.50;99.90
57108;DHT22;42987;52.916;6.542;2023-02-15T13:29:05;10.50;99.90
57108;DHT22;42987;52.916;6.542;2023-02-15T13:31:34;10.50;99.90
57108;DHT22;42987;52.916;6.542;2023-02-15T13:34:14;10.50;99.90
57108;DHT22;42987;52.916;6.542;2023-02-15T13:37:15;10.50;99.90
57108;DHT22;42987;52.916;6.542;2023-02-15T13:39:58;10.50;99.90
57108;DHT22;42987;52.916;6.542;2023-02-15T13:42:32;10.40;99.90
57108;DHT22;42987;52.916;6.542;2023-02-15T13:45:33;10.40;99.90
57108;DHT22;42987;52.916;6.542;2023-02-15T13:56:17;10.20;99.90
57108;DHT22;42987;52.916;6.542;2023-02-15T13:58:51;10.40;99.90
57108;DHT22;42987;52.916;6.542;2023-02-15T14:18:19;10.60;99.90
57108;DHT22;42987;52.916;6.542;2023-02-15T14:23:52;10.70;99.90
57108;DHT22;42987;52.916;6.542;2023-02-15T14:29:20;10.60;99.90
57108;DHT22;42987;52.916;6.542;2023-02-15T14:31:52;10.60;99.90
57108;DHT22;42987;52.916;6.542;2023-02-15T14:34:41;10.60;99.90
57108;DHT22;42987;52.916;6.542;2023-02-15T14:37:10;10.50;99.90
57108;DHT22;42987;52.916;6.542;2023-02-15T14:42:37;10.50;99.90
57108;DHT22;42987;52.916;6.542;2023-02-15T14:45:19;10.50;99.90
57108;DHT22;42987;52.916;6.542;2023-02-15T14:47:55;10.40;99.90
57108;DHT22;42987;52.916;6.542;2023-02-15T14:50:36;10.50;99.90
57108;DHT22;42987;52.916;6.542;2023-02-15T14:58:56;10.50;99.90
57108;DHT22;42987;52.916;6.542;2023-02-15T15:03:53;10.40;99.90
57108;DHT22;42987;52.916;6.542;2023-02-15T15:06:29;10.50;99.90
57108;DHT22;42987;52.916;6.542;2023-02-15T15:09:05;10.40;99.90
57108;DHT22;42987;52.916;6.542;2023-02-15T15:11:47;10.40;99.90
57108;DHT22;42987;52.916;6.542;2023-02-15T15:16:59;10.40;99.90
57108;DHT22;42987;52.916;6.542;2023-02-15T15:22:23;10.50;99.90
57108;DHT22;42987;52.916;6.542;2023-02-15T15:24:57;10.50;99.90
57108;DHT22;42987;52.916;6.542;2023-02-15T15:27:49;10.50;99.90
57108;DHT22;42987;52.916;6.542;2023-02-15T15:49:58;10.40;99.90
57108;DHT22;42987;52.916;6.542;2023-02-15T15:52:25;10.30;99.90
57108;DHT22;42987;52.916;6.542;2023-02-15T15:54:56;10.20;99.90
57108;DHT22;42987;52.916;6.542;2023-02-15T15:59:51;10.20;99.90
57108;DHT22;42987;52.916;6.542;2023-02-15T16:02:17;10.20;99.90
57108;DHT22;42987;52.916;6.542;2023-02-15T16:04:44;10.10;99.90
57108;DHT22;42987;52.916;6.542;2023-02-15T16:12:29;10.00;99.90
57108;DHT22;42987;52.916;6.542;2023-02-15T16:14:56;9.90;99.90
57108;DHT22;42987;52.916;6.542;2023-02-15T16:17:30;9.90;99.90
57108;DHT22;42987;52.916;6.542;2023-02-15T16:20:23;9.80;99.90
57108;DHT22;42987;52.916;6.542;2023-02-15T16:23:02;9.80;99.90
57108;DHT22;42987;52.916;6.542;2023-02-15T16:28:17;9.60;99.90
57108;DHT22;42987;52.916;6.542;2023-02-15T16:30:54;9.60;99.90
57108;DHT22;42987;52.916;6.542;2023-02-15T16:33:20;9.60;99.90
57108;DHT22;42987;52.916;6.542;2023-02-15T16:35:57;9.50;99.90
57108;DHT22;42987;52.916;6.542;2023-02-15T16:41:27;9.40;99.90
57108;DHT22;42987;52.916;6.542;2023-02-15T16:43:56;9.40;99.90
57108;DHT22;42987;52.916;6.542;2023-02-15T16:46:31;9.30;99.90
57108;DHT22;42987;52.916;6.542;2023-02-15T16:49:05;9.30;99.90
57108;DHT22;42987;52.916;6.542;2023-02-15T16:51:36;9.20;99.90
57108;DHT22;42987;52.916;6.542;2023-02-15T16:54:22;9.20;99.90
57108;DHT22;42987;52.916;6.542;2023-02-15T16:56:49;9.20;99.90
57108;DHT22;42987;52.916;6.542;2023-02-15T16:59:39;9.10;99.90
57108;DHT22;42987;52.916;6.542;2023-02-15T17:02:10;9.10;99.90
57108;DHT22;42987;52.916;6.542;2023-02-15T17:04:38;9.00;99.90
57108;DHT22;42987;52.916;6.542;2023-02-15T17:07:16;9.00;99.90
57108;DHT22;42987;52.916;6.542;2023-02-15T17:09:54;9.00;99.90
57108;DHT22;42987;52.916;6.542;2023-02-15T17:15:38;8.90;99.90
57108;DHT22;42987;52.916;6.542;2023-02-15T17:20:40;8.70;99.90
57108;DHT22;42987;52.916;6.542;2023-02-15T17:26:36;8.70;99.90
57108;DHT22;42987;52.916;6.542;2023-02-15T17:29:35;8.50;99.90
57108;DHT22;42987;52.916;6.542;2023-02-15T17:32:03;8.50;99.90
57108;DHT22;42987;52.916;6.542;2023-02-15T17:35:08;8.40;99.90
57108;DHT22;42987;52.916;6.542;2023-02-15T17:37:44;8.50;99.90
57108;DHT22;42987;52.916;6.542;2023-02-15T17:40:24;8.30;99.90
57108;DHT22;42987;52.916;6.542;2023-02-15T17:42:53;8.30;99.90
57108;DHT22;42987;52.916;6.542;2023-02-15T17:45:22;8.30;99.90
57108;DHT22;42987;52.916;6.542;2023-02-15T17:47:53;8.30;99.90
57108;DHT22;42987;52.916;6.542;2023-02-15T17:50:22;8.30;99.90
57108;DHT22;42987;52.916;6.542;2023-02-15T17:52:49;8.20;99.90
57108;DHT22;42987;52.916;6.542;2023-02-15T17:55:18;8.10;99.90
57108;DHT22;42987;52.916;6.542;2023-02-15T17:58:05;8.10;99.90
57108;DHT22;42987;52.916;6.542;2023-02-15T18:00:33;8.10;99.90
57108;DHT22;42987;52.916;6.542;2023-02-15T18:03:19;8.00;99.90
57108;DHT22;42987;52.916;6.542;2023-02-15T18:06:04;7.90;99.90
57108;DHT22;42987;52.916;6.542;2023-02-15T18:08:51;7.90;99.90
57108;DHT22;42987;52.916;6.542;2023-02-15T18:11:36;7.80;99.90
57108;DHT22;42987;52.916;6.542;2023-02-15T18:14:07;7.70;99.90
57108;DHT22;42987;52.916;6.542;2023-02-15T18:16:37;7.60;99.90
57108;DHT22;42987;52.916;6.542;2023-02-15T18:19:10;7.60;99.90
57108;DHT22;42987;52.916;6.542;2023-02-15T18:21:41;7.60;99.90
57108;DHT22;42987;52.916;6.542;2023-02-15T18:24:15;7.60;99.90
57108;DHT22;42987;52.916;6.542;2023-02-15T18:26:41;7.50;99.90
57108;DHT22;42987;52.916;6.542;2023-02-15T18:29:08;7.50;99.90
57108;DHT22;42987;52.916;6.542;2023-02-15T18:31:37;7.50;99.90
57108;DHT22;42987;52.916;6.542;2023-02-15T18:34:03;7.40;99.90
57108;DHT22;42987;52.916;6.542;2023-02-15T18:36:32;7.40;99.90
57108;DHT22;42987;52.916;6.542;2023-02-15T18:38:59;7.30;99.90
57108;DHT22;42987;52.916;6.542;2023-02-15T18:41:25;7.30;99.90
57108;DHT22;42987;52.916;6.542;2023-02-15T18:43:51;7.30;99.90
57108;DHT22;42987;52.916;6.542;2023-02-15T18:46:19;7.30;99.90
57108;DHT22;42987;52.916;6.542;2023-02-15T18:48:45;7.20;99.90
57108;DHT22;42987;52.916;6.542;2023-02-15T18:51:19;7.20;99.90
57108;DHT22;42987;52.916;6.542;2023-02-15T18:53:48;7.20;99.90
57108;DHT22;42987;52.916;6.542;2023-02-15T18:56:20;7.10;99.90
57108;DHT22;42987;52.916;6.542;2023-02-15T18:58:46;7.10;99.90
57108;DHT22;42987;52.916;6.542;2023-02-15T19:01:17;7.10;99.90
57108;DHT22;42987;52.916;6.542;2023-02-15T19:03:48;7.10;99.90
57108;DHT22;42987;52.916;6.542;2023-02-15T19:06:20;7.10;99.90
57108;DHT22;42987;52.916;6.542;2023-02-15T19:08:47;7.00;99.90
57108;DHT22;42987;52.916;6.542;2023-02-15T19:11:19;7.00;99.90
57108;DHT22;42987;52.916;6.542;2023-02-15T19:13:50;7.00;99.90
57108;DHT22;42987;52.916;6.542;2023-02-15T19:16:31;7.00;99.90
57108;DHT22;42987;52.916;6.542;2023-02-15T19:18:57;7.00;99.90
57108;DHT22;42987;52.916;6.542;2023-02-15T19:21:23;7.00;99.90
57108;DHT22;42987;52.916;6.542;2023-02-15T19:23:58;7.00;99.90
57108;DHT22;42987;52.916;6.542;2023-02-15T19:26:26;6.90;99.90
57108;DHT22;42987;52.916;6.542;2023-02-15T19:28:59;7.00;99.90
57108;DHT22;42987;52.916;6.542;2023-02-15T19:31:26;6.90;99.90
57108;DHT22;42987;52.916;6.542;2023-02-15T19:33:51;6.90;99.90
57108;DHT22;42987;52.916;6.542;2023-02-15T19:36:18;6.90;99.90
57108;DHT22;42987;52.916;6.542;2023-02-15T19:38:48;6.90;99.90
57108;DHT22;42987;52.916;6.542;2023-02-15T19:41:23;6.90;99.90
57108;DHT22;42987;52.916;6.542;2023-02-15T19:43:53;6.90;99.90